createdAt,value
2023-03-29T00:02:13.325Z,3.42
2023-03-29T00:05:18.687Z,2.87
2023-03-29T00:08:22.544Z,2.70
2023-03-29T00:11:27.381Z,2.78
2023-03-29T00:14:31.193Z,2.53
2023-03-29T00:17:34.650Z,2.08
2023-03-29T00:20:38.144Z,2.83
2023-03-29T00:23:41.612Z,2.57
2023-03-29T00:26:48.979Z,2.30
2023-03-29T00:29:52.056Z,2.28
2023-03-29T00:32:55.137Z,2.97
2023-03-29T00:35:58.663Z,2.77
2023-03-29T00:39:01.878Z,2.43
2023-03-29T00:42:05.063Z,2.65
2023-03-29T00:45:21.811Z,3.78
2023-03-29T00:48:30.131Z,2.70
2023-03-29T00:51:37.458Z,2.53
2023-03-29T00:54:46.266Z,2.93
2023-03-29T00:57:52.312Z,2.47
2023-03-29T01:01:08.780Z,2.28
2023-03-29T01:04:24.139Z,2.95
2023-03-29T01:07:58.292Z,3.07
2023-03-29T01:11:12.548Z,2.60
2023-03-29T01:14:34.048Z,2.55
2023-03-29T01:17:38.907Z,2.38
2023-03-29T01:21:03.547Z,2.53
2023-03-29T01:24:10.952Z,2.70
2023-03-29T01:27:22.884Z,3.10
2023-03-29T01:30:37.477Z,2.90
2023-03-29T01:33:45.426Z,2.63
2023-03-29T01:36:51.394Z,3.50
2023-03-29T01:39:54.595Z,3.27
2023-03-29T01:42:57.540Z,2.90
2023-03-29T01:46:11.634Z,3.63
2023-03-29T01:49:25.811Z,2.60
2023-03-29T01:52:36.210Z,2.72
2023-03-29T01:55:43.064Z,3.47
2023-03-29T01:58:51.338Z,3.03
2023-03-29T02:02:00.083Z,2.60
2023-03-29T02:05:05.241Z,2.75
2023-03-29T02:08:12.167Z,2.40
2023-03-29T02:11:15.748Z,3.63
2023-03-29T02:14:19.480Z,3.17
2023-03-29T02:17:24.717Z,3.70
2023-03-29T02:20:34.131Z,3.42
2023-03-29T02:23:45.602Z,2.60
2023-03-29T02:26:49.771Z,2.90
2023-03-29T02:29:53.449Z,3.67
2023-03-29T02:33:07.038Z,2.95
2023-03-29T02:36:19.914Z,3.05
2023-03-29T02:39:25.635Z,2.72
2023-03-29T02:42:29.994Z,3.60
2023-03-29T02:45:35.826Z,2.53
2023-03-29T02:48:39.816Z,2.35
2023-03-29T02:51:44.838Z,3.15
2023-03-29T02:54:51.443Z,3.00
2023-03-29T02:57:54.497Z,2.63
2023-03-29T03:01:01.630Z,2.83
2023-03-29T03:04:04.883Z,2.92
2023-03-29T03:07:08.381Z,3.17
2023-03-29T03:10:11.533Z,2.40
2023-03-29T03:13:14.749Z,2.47
2023-03-29T03:16:18.224Z,3.03
2023-03-29T03:19:21.754Z,2.67
2023-03-29T03:22:26.646Z,3.28
2023-03-29T03:25:30.259Z,3.80
2023-03-29T03:28:33.722Z,3.70
2023-03-29T03:31:41.542Z,3.27
2023-03-29T03:35:05.863Z,4.00
2023-03-29T03:38:09.194Z,3.20
2023-03-29T03:41:12.583Z,3.22
2023-03-29T03:44:15.875Z,2.77
2023-03-29T03:47:19.464Z,3.23
2023-03-29T03:50:24.591Z,3.25
2023-03-29T03:53:28.724Z,3.75
2023-03-29T03:56:50.084Z,2.80
2023-03-29T04:00:00.200Z,2.90
2023-03-29T04:03:17.260Z,3.13
2023-03-29T04:06:20.943Z,3.05
2023-03-29T04:09:43.430Z,2.50
2023-03-29T04:13:07.341Z,3.25
2023-03-29T04:16:20.378Z,2.63
2023-03-29T04:19:24.402Z,3.10
2023-03-29T04:22:28.982Z,3.47
2023-03-29T04:25:32.634Z,3.13
2023-03-29T04:28:54.695Z,3.30
2023-03-29T04:32:07.023Z,4.03
2023-03-29T04:35:25.991Z,3.33
2023-03-29T04:38:29.259Z,3.72
2023-03-29T04:41:32.825Z,3.42
2023-03-29T04:44:43.841Z,3.28
2023-03-29T04:47:49.717Z,5.33
2023-03-29T04:50:54.948Z,6.07
2023-03-29T04:53:58.308Z,5.95
2023-03-29T04:57:04.125Z,6.80
2023-03-29T05:00:31.685Z,6.72
2023-03-29T05:04:14.162Z,5.27
2023-03-29T05:07:33.821Z,5.37
2023-03-29T05:10:37.501Z,4.60
2023-03-29T05:13:41.327Z,4.80
2023-03-29T05:16:44.834Z,4.82
2023-03-29T05:19:48.143Z,5.63
2023-03-29T05:22:52.880Z,6.43
2023-03-29T05:26:15.591Z,6.40
2023-03-29T05:29:24.692Z,6.32
2023-03-29T05:32:38.140Z,6.55
2023-03-29T05:35:43.898Z,6.27
2023-03-29T05:38:47.623Z,6.23
2023-03-29T05:41:51.583Z,6.32
2023-03-29T05:45:05.054Z,6.13
2023-03-29T05:48:08.986Z,7.45
2023-03-29T05:51:15.161Z,7.40
2023-03-29T05:54:18.624Z,7.90
2023-03-29T05:57:22.688Z,7.60
2023-03-29T06:00:26.863Z,6.80
2023-03-29T06:03:42.813Z,7.43
2023-03-29T06:06:46.738Z,5.67
2023-03-29T06:09:50.429Z,6.10
2023-03-29T06:12:55.842Z,4.95
2023-03-29T06:16:02.061Z,5.45
2023-03-29T06:19:07.043Z,5.35
2023-03-29T06:22:14.694Z,5.83
2023-03-29T06:25:19.937Z,4.97
2023-03-29T06:28:27.841Z,4.80
2023-03-29T06:31:33.989Z,5.03
2023-03-29T06:34:38.640Z,4.30
2023-03-29T06:37:59.257Z,4.40
2023-03-29T06:41:27.797Z,5.07
2023-03-29T06:44:43.383Z,5.63
2023-03-29T06:47:58.161Z,4.45
2023-03-29T06:51:01.665Z,4.45
2023-03-29T06:54:07.745Z,5.40
2023-03-29T06:57:13.425Z,4.83
2023-03-29T07:00:28.083Z,4.55
2023-03-29T07:03:50.157Z,4.38
2023-03-29T07:07:02.011Z,3.80
2023-03-29T07:10:08.152Z,4.27
2023-03-29T07:13:15.822Z,3.87
2023-03-29T07:16:20.356Z,3.60
2023-03-29T07:19:45.362Z,3.70
2023-03-29T07:23:12.069Z,3.83
2023-03-29T07:26:28.611Z,4.03
2023-03-29T07:29:33.116Z,3.57
2023-03-29T07:32:39.215Z,3.05
2023-03-29T07:36:01.041Z,3.90
2023-03-29T07:39:09.331Z,3.15
2023-03-29T07:42:15.446Z,4.00
2023-03-29T07:45:26.529Z,3.60
2023-03-29T07:48:44.582Z,3.50
2023-03-29T07:51:51.846Z,3.17
2023-03-29T07:54:55.893Z,3.90
2023-03-29T07:58:18.344Z,2.57
2023-03-29T08:01:22.095Z,3.40
2023-03-29T08:04:49.233Z,2.30
2023-03-29T08:07:53.919Z,2.05
2023-03-29T08:11:20.939Z,2.45
2023-03-29T08:14:38.817Z,2.53
2023-03-29T08:17:51.204Z,2.10
2023-03-29T08:20:55.411Z,2.25
2023-03-29T08:23:59.077Z,2.25
2023-03-29T08:27:22.963Z,2.35
2023-03-29T08:30:26.478Z,2.37
2023-03-29T08:33:30.323Z,2.33
2023-03-29T08:36:55.760Z,2.70
2023-03-29T08:40:22.513Z,2.20
2023-03-29T08:43:50.369Z,1.95
2023-03-29T08:47:16.838Z,3.03
2023-03-29T08:50:32.781Z,2.90
2023-03-29T08:53:52.723Z,2.38
2023-03-29T08:57:15.673Z,2.50
2023-03-29T09:00:31.559Z,2.53
2023-03-29T09:03:37.744Z,2.83
2023-03-29T09:06:47.796Z,2.30
2023-03-29T09:09:58.937Z,2.72
2023-03-29T09:13:23.384Z,2.20
2023-03-29T09:16:26.730Z,2.50
2023-03-29T09:19:30.626Z,2.20
2023-03-29T09:22:40.670Z,2.93
2023-03-29T09:25:54.240Z,2.55
2023-03-29T09:29:43.261Z,2.72
2023-03-29T09:33:00.607Z,2.75
2023-03-29T09:36:29.007Z,2.63
2023-03-29T09:39:33.105Z,2.47
2023-03-29T09:42:51.666Z,2.47
2023-03-29T09:46:00.921Z,3.08
2023-03-29T09:49:11.131Z,2.42
2023-03-29T09:52:17.339Z,3.30
2023-03-29T09:55:34.091Z,2.30
2023-03-29T09:58:51.531Z,2.75
2023-03-29T10:02:06.833Z,2.08
2023-03-29T10:05:16.268Z,1.67
2023-03-29T10:08:27.794Z,2.17
2023-03-29T10:11:37.137Z,2.73
2023-03-29T10:14:49.142Z,2.13
2023-03-29T10:18:07.174Z,2.50
2023-03-29T10:21:24.314Z,2.75
2023-03-29T10:24:28.519Z,1.90
2023-03-29T10:27:35.950Z,2.80
2023-03-29T10:30:40.344Z,2.63
2023-03-29T10:33:47.013Z,2.20
2023-03-29T10:37:11.511Z,1.67
2023-03-29T10:40:26.467Z,2.00
2023-03-29T10:43:43.446Z,1.90
2023-03-29T10:46:47.244Z,2.05
2023-03-29T10:49:57.075Z,2.28
2023-03-29T10:53:03.301Z,1.30
2023-03-29T10:56:07.984Z,1.77
2023-03-29T10:59:31.556Z,1.93
2023-03-29T11:02:56.299Z,2.70
2023-03-29T11:06:02.328Z,1.98
2023-03-29T11:09:41.000Z,1.73
2023-03-29T11:13:06.723Z,1.80
2023-03-29T11:16:18.818Z,1.27
2023-03-29T11:19:28.268Z,2.15
2023-03-29T11:22:41.695Z,2.38
2023-03-29T11:26:01.389Z,2.15
2023-03-29T11:29:16.968Z,3.75
2023-03-29T11:32:38.893Z,2.10
2023-03-29T11:36:13.745Z,2.33
2023-03-29T11:39:30.511Z,2.00
2023-03-29T11:42:39.192Z,2.15
2023-03-29T11:45:57.209Z,2.15
2023-03-29T11:49:14.174Z,1.63
2023-03-29T11:52:17.879Z,1.70
2023-03-29T11:55:35.924Z,2.25
2023-03-29T11:58:43.261Z,2.10
2023-03-29T12:02:28.036Z,2.10
2023-03-29T12:05:43.236Z,1.80
2023-03-29T12:09:00.640Z,2.00
2023-03-29T12:12:19.379Z,2.03
2023-03-29T12:15:31.858Z,2.58
2023-03-29T12:18:45.667Z,3.05
2023-03-29T12:21:49.867Z,1.87
2023-03-29T12:24:57.680Z,1.98
2023-03-29T12:28:20.159Z,1.95
2023-03-29T12:32:05.648Z,1.65
2023-03-29T12:35:30.455Z,2.10
2023-03-29T12:38:55.461Z,1.90
2023-03-29T12:42:19.395Z,1.92
2023-03-29T12:45:48.774Z,2.00
2023-03-29T12:48:57.450Z,3.80
2023-03-29T12:52:03.213Z,2.10
2023-03-29T12:55:42.504Z,2.23
2023-03-29T12:59:25.906Z,2.45
2023-03-29T13:02:36.388Z,1.65
2023-03-29T13:05:40.009Z,1.27
2023-03-29T13:08:46.401Z,1.33
2023-03-29T13:11:54.679Z,1.20
2023-03-29T13:15:04.154Z,1.60
2023-03-29T13:18:47.944Z,1.65
2023-03-29T13:22:10.462Z,1.20
2023-03-29T13:25:29.064Z,1.70
2023-03-29T13:28:53.400Z,1.30
2023-03-29T13:32:18.550Z,1.52
2023-03-29T13:36:06.734Z,1.60
2023-03-29T13:39:37.135Z,1.33
2023-03-29T13:42:42.080Z,34.05
2023-03-29T13:45:52.241Z,10.50
2023-03-29T13:49:20.772Z,2.53
2023-03-29T13:52:33.480Z,1.50
2023-03-29T13:55:45.650Z,1.35
2023-03-29T13:58:58.132Z,2.28
2023-03-29T14:02:04.873Z,1.73
2023-03-29T14:05:13.138Z,1.60
2023-03-29T14:08:39.404Z,2.33
2023-03-29T14:11:46.716Z,1.70
2023-03-29T14:14:58.966Z,1.63
2023-03-29T14:18:05.486Z,1.40
2023-03-29T14:21:11.641Z,1.50
2023-03-29T14:24:22.470Z,1.60
2023-03-29T14:27:31.909Z,1.75
2023-03-29T14:30:35.326Z,1.80
2023-03-29T14:33:38.668Z,1.60
2023-03-29T14:36:45.010Z,7.65
2023-03-29T14:39:49.575Z,10.85
2023-03-29T14:42:53.388Z,4.13
2023-03-29T14:45:57.533Z,2.20
2023-03-29T14:49:02.372Z,2.20
2023-03-29T14:52:06.777Z,2.42
2023-03-29T14:55:11.649Z,2.63
2023-03-29T14:58:27.511Z,2.45
2023-03-29T15:01:31.415Z,1.95
2023-03-29T15:04:36.410Z,2.10
2023-03-29T15:07:43.223Z,2.40
2023-03-29T15:10:46.796Z,5.57
2023-03-29T15:13:56.626Z,2.83
2023-03-29T15:17:04.868Z,2.50
2023-03-29T15:20:13.261Z,2.63
2023-03-29T15:23:16.591Z,2.85
2023-03-29T15:26:33.650Z,2.70
2023-03-29T15:29:43.362Z,2.90
2023-03-29T15:32:46.816Z,2.70
2023-03-29T15:35:52.566Z,3.27
2023-03-29T15:38:55.959Z,3.25
2023-03-29T15:41:59.401Z,2.20
2023-03-29T15:45:06.435Z,2.72
2023-03-29T15:48:16.369Z,2.50
2023-03-29T15:51:19.919Z,2.57
2023-03-29T15:54:24.950Z,2.33
2023-03-29T15:57:28.911Z,2.70
2023-03-29T16:00:33.035Z,2.78
2023-03-29T16:03:36.189Z,2.58
2023-03-29T16:06:39.252Z,2.70
2023-03-29T16:09:43.144Z,2.78
2023-03-29T16:16:03.926Z,7.95
2023-03-29T16:19:07.355Z,11.70
2023-03-29T16:22:10.561Z,10.23
2023-03-29T16:25:19.272Z,6.95
2023-03-29T16:28:22.525Z,4.90
2023-03-29T16:31:27.150Z,4.95
2023-03-29T16:34:30.473Z,5.47
2023-03-29T16:37:33.608Z,4.57
2023-03-29T16:40:37.222Z,4.68
2023-03-29T16:43:40.615Z,4.05
2023-03-29T16:46:44.066Z,3.83
2023-03-29T16:49:48.708Z,4.53
2023-03-29T16:52:52.769Z,5.00
2023-03-29T16:55:58.952Z,8.20
2023-03-29T16:59:02.054Z,4.40
2023-03-29T17:02:05.431Z,4.65
2023-03-29T17:05:09.410Z,3.83
2023-03-29T17:08:12.675Z,3.00
2023-03-29T17:11:20.642Z,3.45
2023-03-29T17:17:42.447Z,2.75
2023-03-29T17:20:46.084Z,3.33
2023-03-29T17:23:49.438Z,2.63
2023-03-29T17:26:52.498Z,2.55
2023-03-29T17:29:55.957Z,2.40
2023-03-29T17:32:59.088Z,2.20
2023-03-29T17:36:02.989Z,2.25
2023-03-29T17:39:07.198Z,2.87
2023-03-29T17:42:10.611Z,2.45
2023-03-29T17:45:14.910Z,2.60
2023-03-29T17:48:18.943Z,2.67
2023-03-29T17:51:23.724Z,2.30
2023-03-29T17:54:27.107Z,2.43
2023-03-29T17:57:31.250Z,3.20
2023-03-29T18:00:34.840Z,3.88
2023-03-29T18:03:38.215Z,3.80
2023-03-29T18:06:42.834Z,4.27
2023-03-29T18:09:46.386Z,5.37
2023-03-29T18:12:49.649Z,5.88
2023-03-29T18:15:56.890Z,6.82
2023-03-29T18:19:00.021Z,10.10
2023-03-29T18:22:03.490Z,11.23
2023-03-29T18:25:07.645Z,13.47
2023-03-29T18:28:11.413Z,12.98
2023-03-29T18:31:15.207Z,20.77
2023-03-29T18:34:18.729Z,18.05
2023-03-29T18:37:22.090Z,15.37
2023-03-29T18:40:25.316Z,14.43
2023-03-29T18:43:29.641Z,14.02
2023-03-29T18:46:33.424Z,16.15
2023-03-29T18:49:36.948Z,15.95
2023-03-29T18:52:40.563Z,14.23
2023-03-29T18:55:44.303Z,12.93
2023-03-29T18:58:48.147Z,12.77
2023-03-29T19:01:51.740Z,12.63
2023-03-29T19:04:55.408Z,12.77
2023-03-29T19:07:59.479Z,12.40
2023-03-29T19:11:05.669Z,11.30
2023-03-29T19:14:10.667Z,12.32
2023-03-29T19:17:14.061Z,12.43
2023-03-29T19:20:17.500Z,11.52
2023-03-29T19:23:22.118Z,12.17
2023-03-29T19:26:26.584Z,13.73
2023-03-29T19:29:30.318Z,12.50
2023-03-29T19:32:34.055Z,13.43
2023-03-29T19:35:37.659Z,11.45
2023-03-29T19:38:41.712Z,12.10
2023-03-29T19:41:45.094Z,9.60
2023-03-29T19:44:48.213Z,10.98
2023-03-29T19:47:57.336Z,9.98
2023-03-29T19:51:04.581Z,7.53
2023-03-29T19:54:08.275Z,8.43
2023-03-29T19:57:11.605Z,7.07
2023-03-29T20:00:15.185Z,5.97
2023-03-29T20:03:19.643Z,7.07
2023-03-29T20:06:23.300Z,8.10
2023-03-29T20:09:26.592Z,8.57
2023-03-29T20:12:29.858Z,10.07
2023-03-29T20:15:32.966Z,8.63
2023-03-29T20:18:38.358Z,8.90
2023-03-29T20:21:42.079Z,8.57
2023-03-29T20:24:45.666Z,7.97
2023-03-29T20:27:49.563Z,8.13
2023-03-29T20:30:53.797Z,7.55
2023-03-29T20:33:57.618Z,7.97
2023-03-29T20:37:02.275Z,7.28
2023-03-29T20:40:08.301Z,6.87
2023-03-29T20:43:13.712Z,6.47
2023-03-29T20:46:23.032Z,6.82
2023-03-29T20:49:26.723Z,6.25
2023-03-29T20:52:30.877Z,8.18
2023-03-29T20:55:38.250Z,6.43
2023-03-29T20:58:42.313Z,8.30
2023-03-29T21:01:47.177Z,7.65
2023-03-29T21:04:52.041Z,6.82
2023-03-29T21:07:55.203Z,7.40
2023-03-29T21:10:58.172Z,7.97
2023-03-29T21:14:01.525Z,8.20
2023-03-29T21:17:04.802Z,8.07
2023-03-29T21:20:11.203Z,7.07
2023-03-29T21:23:14.376Z,7.03
2023-03-29T21:26:17.672Z,5.10
2023-03-29T21:29:20.714Z,6.40
2023-03-29T21:32:23.647Z,6.32
2023-03-29T21:35:26.752Z,6.72
2023-03-29T21:38:30.060Z,7.43
2023-03-29T21:41:33.059Z,6.30
2023-03-29T21:44:36.244Z,6.43
2023-03-29T21:47:39.871Z,6.38
2023-03-29T21:50:42.930Z,5.97
2023-03-29T21:53:46.498Z,5.72
2023-03-29T21:56:49.784Z,4.47
2023-03-29T21:59:53.063Z,5.03
2023-03-29T22:02:57.085Z,5.60
2023-03-29T22:06:03.007Z,5.53
2023-03-29T22:09:06.696Z,4.72
2023-03-29T22:12:10.566Z,5.73
2023-03-29T22:15:13.987Z,4.77
2023-03-29T22:18:17.007Z,6.25
2023-03-29T22:21:23.612Z,6.25
2023-03-29T22:24:30.549Z,5.25
2023-03-29T22:27:33.637Z,6.27
2023-03-29T22:30:37.030Z,5.27
2023-03-29T22:33:40.615Z,4.18
2023-03-29T22:36:43.756Z,6.13
2023-03-29T22:39:46.862Z,5.00
2023-03-29T22:42:50.034Z,4.97
2023-03-29T22:45:53.263Z,5.13
2023-03-29T22:48:56.617Z,5.03
2023-03-29T22:52:01.491Z,4.15
2023-03-29T22:55:05.074Z,4.80
2023-03-29T22:58:08.090Z,4.63
2023-03-29T23:01:11.471Z,4.37
2023-03-29T23:04:14.862Z,4.28
2023-03-29T23:07:18.054Z,4.43
2023-03-29T23:10:21.742Z,4.82
2023-03-29T23:13:28.777Z,4.53
2023-03-29T23:16:32.318Z,3.93
2023-03-29T23:19:36.415Z,4.03
2023-03-29T23:22:39.849Z,4.35
2023-03-29T23:25:45.747Z,3.55
2023-03-29T23:28:51.539Z,4.30
2023-03-29T23:31:56.990Z,4.90
2023-03-29T23:35:00.568Z,5.15
2023-03-29T23:38:05.567Z,4.72
2023-03-29T23:41:10.936Z,4.38
2023-03-29T23:44:14.299Z,4.30
2023-03-29T23:47:17.564Z,3.63
2023-03-29T23:50:22.774Z,4.03
2023-03-29T23:53:29.004Z,3.78
2023-03-29T23:56:32.783Z,4.53
2023-03-29T23:59:37.991Z,3.93
